Time;durP1;ratioP1;P1;durP2;ratioP2;P2;SDS_P1;SDS_P2;PMS_P1;PMS_P2;Temp;Humidity;BMP_temperature;BMP_pressure;BME280_temperature;BME280_humidity;BME280_pressure;Samples;Min_cycle;Max_cycle;Signal;HPM_P1;HPM_P2
2024/01/21 00:02:14;;;;;;;17.23;9.27;;;0.10;99.90;;;;;;5071251;28;20055;-62
2024/01/21 00:04:40;;;;;;;11.00;7.97;;;0.10;99.90;;;;;;5083534;28;20044;-62
2024/01/21 00:07:07;;;;;;;15.45;8.70;;;0.10;99.90;;;;;;5091863;28;20097;-62
2024/01/21 00:09:32;;;;;;;12.38;8.32;;;0.10;99.90;;;;;;5091146;28;20040;-62
2024/01/21 00:11:58;;;;;;;13.60;8.68;;;0.10;99.90;;;;;;5092616;28;20036;-62
2024/01/21 00:14:24;;;;;;;15.25;8.35;;;0.10;99.90;;;;;;5092371;28;20046;-62
2024/01/21 00:16:50;;;;;;;12.40;8.40;;;0.10;99.90;;;;;;5091509;28;20479;-62
2024/01/21 00:19:16;;;;;;;13.07;8.55;;;0.10;99.90;;;;;;5091299;28;20042;-61
2024/01/21 00:21:41;;;;;;;12.38;9.27;;;0.10;99.90;;;;;;5082828;28;20071;-62
2024/01/21 00:24:07;;;;;;;10.20;7.72;;;0.10;99.90;;;;;;5091495;28;20436;-61
2024/01/21 00:26:33;;;;;;;11.95;8.27;;;0.10;99.90;;;;;;5091803;28;20044;-62
2024/01/21 00:29:00;;;;;;;12.10;8.07;;;0.10;99.90;;;;;;5091285;28;20119;-62
2024/01/21 00:31:30;;;;;;;11.65;7.80;;;0.10;99.90;;;;;;5090758;28;20121;-62
2024/01/21 00:33:55;;;;;;;11.15;7.80;;;0.10;99.90;;;;;;5092204;28;20035;-62
2024/01/21 00:36:21;;;;;;;11.90;8.13;;;0.10;99.90;;;;;;5092091;28;20036;-62
2024/01/21 00:38:47;;;;;;;12.65;7.97;;;0.20;99.90;;;;;;5090925;28;20071;-62
2024/01/21 00:41:14;;;;;;;11.32;8.13;;;0.20;99.90;;;;;;5091134;28;20051;-62
2024/01/21 00:43:40;;;;;;;11.95;7.68;;;0.20;99.90;;;;;;5090474;28;20077;-62
2024/01/21 00:46:06;;;;;;;11.90;7.28;;;0.20;99.90;;;;;;5090699;28;20494;-62
2024/01/21 00:48:32;;;;;;;10.98;7.20;;;0.20;99.90;;;;;;5090487;28;20073;-62
2024/01/21 00:50:57;;;;;;;11.23;7.63;;;0.20;99.90;;;;;;5063795;28;20384;-62
2024/01/21 00:53:23;;;;;;;11.93;7.85;;;0.20;99.90;;;;;;5071644;28;20035;-62
2024/01/21 00:55:48;;;;;;;11.95;7.20;;;0.20;99.90;;;;;;5070080;28;20082;-62
2024/01/21 00:58:14;;;;;;;10.52;7.20;;;0.20;99.90;;;;;;5070549;28;20429;-61
2024/01/21 01:00:40;;;;;;;16.90;8.45;;;0.20;99.90;;;;;;5071276;28;20066;-62
2024/01/21 01:03:05;;;;;;;11.85;7.75;;;0.30;99.90;;;;;;5071526;28;20090;-62
2024/01/21 01:05:31;;;;;;;10.68;7.18;;;0.30;99.90;;;;;;5071471;28;20049;-63
2024/01/21 01:07:57;;;;;;;9.25;6.80;;;0.30;99.90;;;;;;5070057;28;20044;-62
2024/01/21 01:10:22;;;;;;;10.38;7.03;;;0.30;99.90;;;;;;5071206;28;20108;-62
2024/01/21 01:12:48;;;;;;;11.43;7.18;;;0.30;99.90;;;;;;5080960;28;20044;-62
2024/01/21 01:15:13;;;;;;;8.63;5.88;;;0.40;99.90;;;;;;5091660;28;20036;-62
2024/01/21 01:17:39;;;;;;;9.63;6.80;;;0.40;99.90;;;;;;5090147;28;20498;-62
2024/01/21 01:20:05;;;;;;;7.55;6.13;;;0.40;99.90;;;;;;5072972;28;20131;-62
2024/01/21 01:22:31;;;;;;;10.75;6.28;;;0.40;99.90;;;;;;5091079;28;20055;-61
2024/01/21 01:24:57;;;;;;;10.38;6.18;;;0.40;99.90;;;;;;5070627;28;20407;-62
2024/01/21 01:27:24;;;;;;;9.15;6.30;;;0.40;99.90;;;;;;5071030;28;20041;-62
2024/01/21 01:29:50;;;;;;;12.25;6.38;;;0.40;99.90;;;;;;5070826;28;20047;-62
2024/01/21 01:32:16;;;;;;;8.65;6.07;;;0.40;99.90;;;;;;5070082;28;20384;-62
2024/01/21 01:34:42;;;;;;;10.77;6.82;;;0.50;99.90;;;;;;5070799;28;20040;-62
2024/01/21 01:37:09;;;;;;;10.15;6.68;;;0.50;99.90;;;;;;5070559;28;20399;-62
2024/01/21 01:39:35;;;;;;;9.35;6.35;;;0.50;99.90;;;;;;5070600;28;20041;-62
2024/01/21 01:42:01;;;;;;;10.23;6.53;;;0.50;99.90;;;;;;5069417;28;20055;-62
2024/01/21 01:44:27;;;;;;;10.45;6.20;;;0.50;99.90;;;;;;5070756;28;20040;-62
2024/01/21 01:46:52;;;;;;;9.48;5.53;;;0.50;99.90;;;;;;5069147;28;20045;-62
2024/01/21 01:49:20;;;;;;;9.27;6.57;;;0.50;99.90;;;;;;5070896;28;20031;-62
2024/01/21 01:51:45;;;;;;;8.93;6.30;;;0.50;99.90;;;;;;5052158;28;20124;-62
2024/01/21 01:54:11;;;;;;;9.45;6.20;;;0.50;99.90;;;;;;5070592;28;20515;-63
2024/01/21 01:56:39;;;;;;;8.65;5.57;;;0.50;99.90;;;;;;5052269;28;20135;-62
2024/01/21 01:59:09;;;;;;;9.18;5.95;;;0.60;99.90;;;;;;5069492;28;20394;-62
2024/01/21 02:01:39;;;;;;;10.35;6.40;;;0.60;99.90;;;;;;5069360;28;20094;-62
2024/01/21 02:04:06;;;;;;;10.52;5.75;;;0.60;99.90;;;;;;5070494;28;20062;-61
2024/01/21 02:06:32;;;;;;;9.43;5.65;;;0.60;99.90;;;;;;5069132;28;20091;-62
2024/01/21 02:08:58;;;;;;;10.15;5.68;;;0.60;99.90;;;;;;5069262;28;20468;-62
2024/01/21 02:11:24;;;;;;;8.93;6.07;;;0.60;99.90;;;;;;5069087;28;20094;-62
2024/01/21 02:13:49;;;;;;;9.20;5.45;;;0.60;99.90;;;;;;5070586;28;20044;-62
2024/01/21 02:16:15;;;;;;;8.38;5.05;;;0.60;99.90;;;;;;5069118;28;20450;-62
2024/01/21 02:18:45;;;;;;;8.18;5.55;;;0.60;99.90;;;;;;5077116;28;20061;-62
2024/01/21 02:21:12;;;;;;;8.68;5.07;;;0.60;99.90;;;;;;5090419;28;20556;-62
2024/01/21 02:23:37;;;;;;;8.30;5.50;;;0.60;99.90;;;;;;5090811;28;20399;-62
2024/01/21 02:26:03;;;;;;;8.25;4.95;;;0.60;99.90;;;;;;5088740;28;20056;-62
2024/01/21 02:28:29;;;;;;;7.13;4.47;;;0.60;99.90;;;;;;5090645;28;20039;-63
2024/01/21 02:30:55;;;;;;;7.47;4.53;;;0.60;99.90;;;;;;5089010;28;20092;-62
2024/01/21 02:33:20;;;;;;;6.72;4.55;;;0.70;99.90;;;;;;5089334;28;20040;-62
2024/01/21 02:35:46;;;;;;;7.90;4.93;;;0.70;99.90;;;;;;5090430;28;20048;-62
2024/01/21 02:38:11;;;;;;;7.22;4.70;;;0.70;99.90;;;;;;5088912;28;20047;-63
2024/01/21 02:40:38;;;;;;;6.90;4.55;;;0.70;99.90;;;;;;5089355;28;20491;-63
2024/01/21 02:43:04;;;;;;;6.65;4.20;;;0.80;99.90;;;;;;5088836;28;20379;-62
2024/01/21 02:45:30;;;;;;;7.13;4.80;;;0.80;99.90;;;;;;5090729;28;20494;-62
2024/01/21 02:47:56;;;;;;;7.65;4.43;;;0.80;99.90;;;;;;5090290;28;20071;-62
2024/01/21 02:50:21;;;;;;;7.35;4.70;;;0.80;99.90;;;;;;5073196;28;20040;-61
2024/01/21 02:52:47;;;;;;;6.88;4.00;;;0.80;99.90;;;;;;5074103;28;20040;-62
2024/01/21 02:55:13;;;;;;;7.30;4.40;;;0.80;99.90;;;;;;5073540;28;20048;-63
2024/01/21 02:57:39;;;;;;;6.60;3.90;;;0.80;99.90;;;;;;5073960;28;20406;-62
2024/01/21 03:00:05;;;;;;;8.52;4.43;;;0.80;99.90;;;;;;5072273;28;20044;-62
2024/01/21 03:02:31;;;;;;;7.32;4.25;;;0.80;99.90;;;;;;5072473;28;20052;-62
2024/01/21 03:04:57;;;;;;;7.30;3.90;;;0.80;99.90;;;;;;5073388;28;20048;-62
2024/01/21 03:07:22;;;;;;;6.15;3.40;;;0.80;99.90;;;;;;5073834;28;20131;-62
2024/01/21 03:09:48;;;;;;;5.43;3.67;;;0.80;99.90;;;;;;5072323;28;20038;-61
2024/01/21 03:12:13;;;;;;;5.75;3.95;;;0.80;99.90;;;;;;5071991;28;20037;-61
2024/01/21 03:14:39;;;;;;;6.25;3.58;;;0.90;99.90;;;;;;5073569;28;20037;-63
2024/01/21 03:17:05;;;;;;;5.38;3.33;;;0.90;99.90;;;;;;5073319;28;20044;-62
2024/01/21 03:19:31;;;;;;;5.53;3.42;;;0.90;99.90;;;;;;5085381;28;20422;-62
2024/01/21 03:21:56;;;;;;;5.40;3.40;;;1.00;99.90;;;;;;5093821;28;20115;-62
2024/01/21 03:24:22;;;;;;;7.07;3.65;;;1.00;99.90;;;;;;5093336;28;20066;-62
2024/01/21 03:26:48;;;;;;;5.63;3.17;;;1.00;99.90;;;;;;5093722;28;20451;-62
2024/01/21 03:29:13;;;;;;;7.07;3.60;;;1.10;99.90;;;;;;5091920;28;20028;-62
2024/01/21 03:31:39;;;;;;;4.35;3.10;;;1.10;99.90;;;;;;5093512;28;20032;-62
2024/01/21 03:34:04;;;;;;;5.30;3.03;;;1.10;99.90;;;;;;5092147;28;20108;-61
2024/01/21 03:36:30;;;;;;;4.75;2.50;;;1.20;99.90;;;;;;5091960;28;20044;-62
2024/01/21 03:38:56;;;;;;;5.63;2.50;;;1.20;99.70;;;;;;5092474;28;20047;-63
2024/01/21 03:41:21;;;;;;;6.75;2.72;;;1.20;99.80;;;;;;5091904;28;20068;-61
2024/01/21 03:43:47;;;;;;;4.22;2.50;;;1.20;99.30;;;;;;5093269;28;20032;-62
2024/01/21 03:46:13;;;;;;;4.65;2.85;;;1.20;99.50;;;;;;5092953;28;20032;-62
2024/01/21 03:48:38;;;;;;;5.25;3.67;;;1.20;99.70;;;;;;5065042;28;20471;-62
2024/01/21 03:51:05;;;;;;;3.22;2.22;;;1.20;99.40;;;;;;5071544;28;20037;-62
2024/01/21 03:53:31;;;;;;;3.28;2.10;;;1.20;99.80;;;;;;5072911;28;20594;-62
2024/01/21 03:55:56;;;;;;;3.97;2.42;;;1.20;99.30;;;;;;5071655;28;20123;-62
2024/01/21 03:58:22;;;;;;;4.38;2.75;;;1.30;98.70;;;;;;5072499;28;20051;-62
2024/01/21 04:00:47;;;;;;;3.83;2.75;;;1.20;98.70;;;;;;5071480;28;20036;-63
2024/01/21 04:03:13;;;;;;;3.70;2.33;;;1.30;98.20;;;;;;5071011;28;20048;-62
2024/01/21 04:05:39;;;;;;;4.25;2.50;;;1.30;98.70;;;;;;5072431;28;20519;-62
2024/01/21 04:08:08;;;;;;;3.75;2.63;;;1.30;98.30;;;;;;5071226;28;20123;-62
2024/01/21 04:10:33;;;;;;;6.68;2.60;;;1.30;98.40;;;;;;5081830;28;20069;-63
2024/01/21 04:12:59;;;;;;;4.85;2.80;;;1.20;98.90;;;;;;5092912;28;20028;-61
2024/01/21 04:15:24;;;;;;;3.80;2.60;;;1.30;99.20;;;;;;5092547;28;20044;-61
2024/01/21 04:17:50;;;;;;;4.45;2.53;;;1.20;98.90;;;;;;5091494;28;20044;-61
2024/01/21 04:20:16;;;;;;;3.35;2.38;;;1.20;99.10;;;;;;5091205;28;20051;-62
2024/01/21 04:22:41;;;;;;;3.92;2.47;;;1.20;99.20;;;;;;5092511;28;20082;-61
2024/01/21 04:25:07;;;;;;;4.60;2.70;;;1.20;99.10;;;;;;5091064;28;20388;-61
2024/01/21 04:27:33;;;;;;;4.32;2.75;;;1.10;99.30;;;;;;5090770;28;20132;-62
2024/01/21 04:29:58;;;;;;;5.05;2.72;;;1.10;99.60;;;;;;5092554;28;20046;-62
2024/01/21 04:32:24;;;;;;;3.88;2.42;;;1.10;98.40;;;;;;5090316;28;20051;-61
2024/01/21 04:34:50;;;;;;;3.92;2.45;;;1.10;98.20;;;;;;5090909;28;20043;-62
2024/01/21 04:37:15;;;;;;;4.05;2.45;;;1.10;98.10;;;;;;5092174;28;20032;-62
2024/01/21 04:39:41;;;;;;;5.05;2.47;;;1.10;98.60;;;;;;5090705;28;20032;-61
2024/01/21 04:42:06;;;;;;;3.88;2.53;;;1.10;98.40;;;;;;5081423;28;20063;-62
2024/01/21 04:44:32;;;;;;;4.00;2.60;;;1.10;98.20;;;;;;5091723;28;20127;-62
2024/01/21 04:46:57;;;;;;;4.22;2.50;;;1.10;98.00;;;;;;5092187;28;20032;-62
2024/01/21 04:49:23;;;;;;;5.55;2.42;;;1.00;97.80;;;;;;5091788;28;20032;-62
2024/01/21 04:51:49;;;;;;;4.47;2.70;;;1.00;97.80;;;;;;5090688;28;20044;-62
2024/01/21 04:54:15;;;;;;;4.70;2.80;;;1.00;97.50;;;;;;5090564;28;20078;-62
2024/01/21 04:56:41;;;;;;;4.10;2.60;;;1.00;97.80;;;;;;5090486;28;20382;-62
2024/01/21 04:59:06;;;;;;;4.35;2.50;;;1.00;97.40;;;;;;5091755;28;20051;-62
2024/01/21 05:01:33;;;;;;;5.00;2.92;;;1.00;97.80;;;;;;5090476;28;20051;-62
2024/01/21 05:03:59;;;;;;;3.95;2.85;;;0.90;98.00;;;;;;5090463;28;20398;-61
2024/01/21 05:06:24;;;;;;;3.95;2.60;;;0.90;97.70;;;;;;5091437;28;20060;-62
2024/01/21 05:08:50;;;;;;;4.72;2.80;;;0.90;98.00;;;;;;5090406;28;20487;-62
2024/01/21 05:11:15;;;;;;;3.88;2.85;;;0.90;97.50;;;;;;5090033;28;20040;-61
2024/01/21 05:13:42;;;;;;;4.28;2.60;;;0.80;97.70;;;;;;5080425;28;20466;-62
2024/01/21 05:16:07;;;;;;;4.32;2.88;;;0.80;98.00;;;;;;5071122;28;20044;-62
2024/01/21 05:18:33;;;;;;;5.40;2.70;;;0.80;98.10;;;;;;5069692;28;20377;-61
2024/01/21 05:20:59;;;;;;;5.18;2.83;;;0.80;97.80;;;;;;5071451;28;20633;-62
2024/01/21 05:23:25;;;;;;;4.25;2.75;;;0.80;98.00;;;;;;5069957;28;20460;-62
2024/01/21 05:25:52;;;;;;;3.97;2.63;;;0.80;98.10;;;;;;5071446;28;20147;-62
2024/01/21 05:28:18;;;;;;;4.88;2.90;;;0.80;98.00;;;;;;5091395;28;20093;-62
2024/01/21 05:30:44;;;;;;;5.05;2.97;;;0.80;97.80;;;;;;5090868;28;20040;-62
2024/01/21 05:33:09;;;;;;;4.05;3.05;;;0.80;97.60;;;;;;5091152;28;20364;-61
2024/01/21 05:35:35;;;;;;;4.55;2.95;;;0.80;97.70;;;;;;5091176;28;20043;-62
2024/01/21 05:38:01;;;;;;;5.88;3.58;;;0.90;97.60;;;;;;5089914;28;20040;-61
2024/01/21 05:40:27;;;;;;;5.70;3.00;;;0.90;97.60;;;;;;5090091;28;20051;-62
2024/01/21 05:42:53;;;;;;;5.28;3.20;;;0.90;98.30;;;;;;5089467;28;20055;-61
2024/01/21 05:45:19;;;;;;;6.43;3.20;;;0.90;98.10;;;;;;5072404;28;20055;-62
2024/01/21 05:47:45;;;;;;;4.75;2.72;;;0.90;97.70;;;;;;5089304;28;20086;-62
2024/01/21 05:50:10;;;;;;;5.50;3.63;;;1.00;97.50;;;;;;5089608;28;20470;-62
2024/01/21 05:52:36;;;;;;;6.22;3.45;;;1.00;97.40;;;;;;5089185;28;20051;-62
2024/01/21 05:55:04;;;;;;;6.72;3.50;;;1.00;96.90;;;;;;5090016;28;20074;-61
2024/01/21 05:57:30;;;;;;;4.85;3.25;;;1.10;97.30;;;;;;5090772;28;20085;-62
2024/01/21 05:59:55;;;;;;;5.20;3.50;;;1.10;97.40;;;;;;5089127;28;20441;-62
2024/01/21 06:02:21;;;;;;;7.53;3.42;;;1.10;96.50;;;;;;5089417;28;20048;-62
2024/01/21 06:04:47;;;;;;;6.30;3.70;;;1.10;96.40;;;;;;5072290;28;20051;-62
2024/01/21 06:07:13;;;;;;;5.93;4.07;;;1.10;96.10;;;;;;5087174;28;20036;-62
2024/01/21 06:09:38;;;;;;;5.25;3.50;;;1.20;96.30;;;;;;5070498;28;20418;-63
2024/01/21 06:12:04;;;;;;;6.00;4.20;;;1.20;96.40;;;;;;5052412;28;20044;-61
2024/01/21 06:14:30;;;;;;;6.28;3.90;;;1.30;96.20;;;;;;5069152;28;20040;-62
2024/01/21 06:16:55;;;;;;;6.97;3.83;;;1.30;96.40;;;;;;5070086;28;20514;-62
2024/01/21 06:19:21;;;;;;;6.30;3.80;;;1.30;95.80;;;;;;5069388;28;20434;-62
2024/01/21 06:21:47;;;;;;;7.03;4.13;;;1.30;96.10;;;;;;5068972;28;20044;-63
2024/01/21 06:24:13;;;;;;;5.20;3.42;;;1.30;96.00;;;;;;5074127;28;20037;-62
2024/01/21 06:26:40;;;;;;;6.10;3.88;;;1.30;95.70;;;;;;5072882;28;20427;-62
2024/01/21 06:29:07;;;;;;;5.47;3.80;;;1.30;95.50;;;;;;5074384;28;20521;-62
2024/01/21 06:31:32;;;;;;;6.05;4.18;;;1.30;95.80;;;;;;5074367;28;20123;-62
2024/01/21 06:33:58;;;;;;;6.75;4.10;;;1.30;96.20;;;;;;5074121;28;20116;-61
2024/01/21 06:36:24;;;;;;;6.22;4.18;;;1.30;96.40;;;;;;5074420;28;20051;-62
2024/01/21 06:38:49;;;;;;;7.50;4.35;;;1.30;96.70;;;;;;5074110;28;20081;-62
2024/01/21 06:41:15;;;;;;;6.90;4.20;;;1.30;96.20;;;;;;5072762;28;20105;-62
2024/01/21 06:43:41;;;;;;;6.55;4.82;;;1.30;96.30;;;;;;5080661;28;20043;-62
2024/01/21 06:46:08;;;;;;;6.47;4.18;;;1.30;96.20;;;;;;5092799;28;20036;-62
2024/01/21 06:48:34;;;;;;;7.15;4.28;;;1.30;96.50;;;;;;5093140;28;20127;-62
2024/01/21 06:51:01;;;;;;;7.25;4.03;;;1.30;96.60;;;;;;5093986;28;20584;-62
2024/01/21 06:53:26;;;;;;;7.00;4.18;;;1.30;96.50;;;;;;5093051;28;20078;-63
2024/01/21 06:55:52;;;;;;;6.00;4.25;;;1.30;96.60;;;;;;5092807;28;20413;-61
2024/01/21 06:58:17;;;;;;;6.55;4.32;;;1.30;96.60;;;;;;5093069;28;20048;-62
2024/01/21 07:00:51;;;;;;;6.55;4.00;;;1.30;96.50;;;;;;5094057;28;20394;-61
2024/01/21 07:03:18;;;;;;;6.40;4.30;;;1.30;96.60;;;;;;5075818;28;20031;-63
2024/01/21 07:05:43;;;;;;;6.15;4.20;;;1.30;96.20;;;;;;5092621;28;20076;-63
2024/01/21 07:08:09;;;;;;;7.18;4.10;;;1.30;96.40;;;;;;5093814;28;20511;-62
2024/01/21 07:10:35;;;;;;;7.72;4.43;;;1.30;96.60;;;;;;5092379;28;20509;-62
2024/01/21 07:13:00;;;;;;;6.55;4.57;;;1.30;96.60;;;;;;5093528;28;20072;-61
2024/01/21 07:15:26;;;;;;;5.75;4.20;;;1.30;96.50;;;;;;5093888;28;20177;-62
2024/01/21 07:17:51;;;;;;;6.90;3.83;;;1.30;96.60;;;;;;5092087;28;20043;-62
2024/01/21 07:20:17;;;;;;;7.35;4.28;;;1.40;96.60;;;;;;5072459;28;20615;-62
2024/01/21 07:22:43;;;;;;;5.93;4.10;;;1.40;96.70;;;;;;5072145;28;20045;-62
2024/01/21 07:25:09;;;;;;;6.05;4.20;;;1.30;96.80;;;;;;5071535;28;20095;-61
2024/01/21 07:27:34;;;;;;;6.65;4.03;;;1.40;97.00;;;;;;5071039;28;20044;-62
2024/01/21 07:30:00;;;;;;;6.72;4.18;;;1.40;97.40;;;;;;5072103;28;20419;-62
2024/01/21 07:32:25;;;;;;;6.55;4.30;;;1.30;97.40;;;;;;5071944;28;20041;-62
2024/01/21 07:34:51;;;;;;;6.00;4.20;;;1.30;97.40;;;;;;5071793;28;20041;-62
2024/01/21 07:37:17;;;;;;;6.85;4.30;;;1.40;97.20;;;;;;5071760;28;20094;-62
2024/01/21 07:39:42;;;;;;;6.53;4.43;;;1.30;97.30;;;;;;5070694;28;20033;-61
2024/01/21 07:42:08;;;;;;;6.00;4.10;;;1.30;97.30;;;;;;5072214;28;20040;-61
2024/01/21 07:44:33;;;;;;;7.65;4.63;;;1.40;97.70;;;;;;5070488;28;20044;-62
2024/01/21 07:46:59;;;;;;;6.82;4.30;;;1.40;97.70;;;;;;5087333;28;20032;-62
2024/01/21 07:49:25;;;;;;;5.18;3.75;;;1.40;97.70;;;;;;5090711;28;20040;-62
2024/01/21 07:51:51;;;;;;;6.28;4.00;;;1.40;98.00;;;;;;5090715;28;20040;-61
2024/01/21 07:54:17;;;;;;;6.43;4.20;;;1.40;97.50;;;;;;5091729;28;20032;-62
2024/01/21 07:56:42;;;;;;;6.85;4.35;;;1.40;97.80;;;;;;5092048;28;20483;-62
2024/01/21 07:59:08;;;;;;;7.05;3.95;;;1.40;97.80;;;;;;5090560;28;20120;-62
2024/01/21 08:01:33;;;;;;;5.75;4.30;;;1.50;97.40;;;;;;5090819;28;20040;-62
2024/01/21 08:03:59;;;;;;;7.15;4.20;;;1.50;97.80;;;;;;5091885;28;20047;-61
2024/01/21 08:06:25;;;;;;;12.55;4.53;;;1.50;97.90;;;;;;5091346;28;20032;-61
2024/01/21 08:08:51;;;;;;;6.80;4.55;;;1.50;98.20;;;;;;5091718;28;20047;-62
2024/01/21 08:11:17;;;;;;;7.32;4.45;;;1.50;99.20;;;;;;5091395;28;20032;-61
2024/01/21 08:13:43;;;;;;;6.25;4.13;;;1.50;99.40;;;;;;5090473;28;20036;-61
2024/01/21 08:16:09;;;;;;;6.70;4.45;;;1.50;99.10;;;;;;5091499;28;20078;-62
2024/01/21 08:18:35;;;;;;;7.38;4.60;;;1.60;98.80;;;;;;5091471;28;20036;-62
2024/01/21 08:21:01;;;;;;;6.63;4.85;;;1.60;99.00;;;;;;5090272;28;20050;-61
2024/01/21 08:23:26;;;;;;;7.15;4.30;;;1.60;99.10;;;;;;5089907;28;22425;-62
2024/01/21 08:25:52;;;;;;;6.90;4.43;;;1.70;98.70;;;;;;5052151;28;1093548;-62
2024/01/21 08:28:18;;;;;;;7.00;4.00;;;1.70;98.50;;;;;;5091105;28;20075;-62
2024/01/21 08:30:44;;;;;;;6.80;4.35;;;1.80;98.70;;;;;;5092468;28;20068;-62
2024/01/21 08:33:09;;;;;;;6.45;4.25;;;1.80;98.90;;;;;;5091042;28;20047;-61
2024/01/21 08:35:36;;;;;;;5.72;4.03;;;1.80;98.50;;;;;;5090799;28;20123;-62
2024/01/21 08:38:02;;;;;;;6.78;4.60;;;1.80;98.60;;;;;;5090897;28;20080;-61
2024/01/21 08:40:28;;;;;;;6.63;4.28;;;1.80;98.80;;;;;;5091716;28;20075;-62
2024/01/21 08:42:53;;;;;;;7.45;5.07;;;1.80;99.00;;;;;;5074142;28;20052;-62
2024/01/21 08:45:19;;;;;;;8.25;4.40;;;1.80;99.00;;;;;;5090941;28;20075;-62
2024/01/21 08:47:45;;;;;;;6.85;4.45;;;1.90;99.10;;;;;;5090748;28;20039;-62
2024/01/21 08:50:10;;;;;;;6.75;4.85;;;1.90;99.30;;;;;;5090560;28;20051;-62
2024/01/21 08:52:36;;;;;;;6.47;4.47;;;2.00;99.40;;;;;;5090339;28;20036;-62
2024/01/21 08:55:04;;;;;;;7.55;4.43;;;2.00;99.40;;;;;;5073615;28;20048;-62
2024/01/21 08:57:30;;;;;;;7.20;4.80;;;2.10;99.40;;;;;;5090197;28;20056;-62
2024/01/21 08:59:55;;;;;;;7.15;4.55;;;2.10;99.40;;;;;;5090519;28;20170;-62
2024/01/21 09:02:21;;;;;;;7.60;4.65;;;2.20;99.50;;;;;;5090330;28;20123;-62
2024/01/21 09:04:46;;;;;;;7.25;4.90;;;2.20;99.30;;;;;;5090288;28;20044;-61
2024/01/21 09:07:12;;;;;;;7.03;4.78;;;2.20;99.40;;;;;;5073169;28;20043;-62
2024/01/21 09:09:38;;;;;;;7.95;4.95;;;2.30;99.20;;;;;;5091334;28;20395;-62
2024/01/21 09:12:04;;;;;;;7.80;5.10;;;2.30;99.30;;;;;;5090500;28;20475;-62
2024/01/21 09:14:30;;;;;;;7.47;5.00;;;2.30;99.40;;;;;;5089913;28;20038;-62
2024/01/21 09:16:56;;;;;;;7.25;5.00;;;2.30;99.60;;;;;;5090233;28;20040;-62
2024/01/21 09:19:21;;;;;;;7.63;4.60;;;2.30;99.20;;;;;;5089722;28;20411;-62
2024/01/21 09:21:47;;;;;;;7.10;4.93;;;2.30;99.60;;;;;;5091309;28;20034;-62
2024/01/21 09:24:14;;;;;;;6.85;4.68;;;2.30;99.90;;;;;;5090169;28;20036;-62
2024/01/21 09:26:41;;;;;;;8.23;4.82;;;2.30;99.90;;;;;;5090779;28;20487;-62
2024/01/21 09:29:06;;;;;;;6.85;4.85;;;2.30;99.90;;;;;;5089507;28;20079;-62
2024/01/21 09:31:32;;;;;;;6.45;4.70;;;2.30;99.90;;;;;;5089560;28;20075;-60
2024/01/21 09:33:58;;;;;;;8.65;5.18;;;2.40;99.90;;;;;;5090177;28;20028;-62
2024/01/21 09:36:23;;;;;;;7.00;4.82;;;2.40;99.90;;;;;;5075468;28;20040;-62
2024/01/21 09:38:51;;;;;;;7.80;4.82;;;2.50;99.90;;;;;;5069358;28;20047;-61
2024/01/21 09:41:25;;;;;;;7.53;4.93;;;2.50;99.90;;;;;;5069977;28;20544;-62
2024/01/21 09:43:50;;;;;;;7.30;4.85;;;2.50;99.90;;;;;;5069697;28;20530;-62
2024/01/21 09:46:16;;;;;;;6.32;4.50;;;2.50;99.90;;;;;;5070911;28;20068;-62
2024/01/21 09:48:42;;;;;;;6.68;4.80;;;2.60;99.90;;;;;;5069193;28;20036;-62
2024/01/21 09:51:08;;;;;;;6.90;4.70;;;2.70;99.90;;;;;;5075188;28;20042;-62
2024/01/21 09:53:34;;;;;;;6.68;4.72;;;2.70;99.90;;;;;;5089493;28;20094;-61
2024/01/21 09:56:08;;;;;;;6.88;5.13;;;2.70;99.90;;;;;;5089145;28;20074;-62
2024/01/21 09:58:48;;;;;;;6.88;4.82;;;2.80;99.90;;;;;;5091020;28;20433;-62
2024/01/21 10:01:15;;;;;;;6.13;4.57;;;2.80;99.90;;;;;;5090954;28;20138;-62
2024/01/21 10:03:41;;;;;;;6.65;4.70;;;2.90;99.90;;;;;;5090620;28;20066;-62
2024/01/21 10:06:07;;;;;;;8.98;4.95;;;2.90;99.90;;;;;;5089298;28;20036;-61
2024/01/21 10:08:37;;;;;;;8.60;4.80;;;3.00;99.90;;;;;;5089341;28;20051;-62
2024/01/21 10:11:03;;;;;;;6.32;4.38;;;3.00;99.90;;;;;;5090792;28;20028;-62
2024/01/21 10:13:35;;;;;;;7.07;5.00;;;3.00;99.90;;;;;;5089421;28;20048;-62
2024/01/21 10:16:01;;;;;;;7.37;4.83;;;3.10;99.90;;;;;;5090553;28;20111;-62
2024/01/21 10:18:28;;;;;;;6.95;5.15;;;3.10;99.90;;;;;;5090549;28;20078;-62
2024/01/21 10:20:56;;;;;;;7.25;4.70;;;3.20;99.90;;;;;;5088938;28;20059;-62
2024/01/21 10:23:21;;;;;;;7.68;4.57;;;3.20;99.90;;;;;;5089896;28;20067;-62
2024/01/21 10:25:48;;;;;;;7.90;5.35;;;3.20;99.90;;;;;;5090168;28;20137;-61
2024/01/21 10:28:15;;;;;;;6.25;4.82;;;3.30;99.90;;;;;;5090693;28;20676;-62
2024/01/21 10:30:42;;;;;;;7.53;4.90;;;3.30;99.90;;;;;;5089101;28;20036;-62
2024/01/21 10:33:08;;;;;;;9.77;5.20;;;3.30;99.90;;;;;;5089056;28;20065;-62
2024/01/21 10:35:33;;;;;;;6.63;4.78;;;3.40;99.90;;;;;;5090540;28;20127;-62
2024/01/21 10:38:02;;;;;;;8.63;4.90;;;3.40;99.90;;;;;;5080383;28;20119;-62
2024/01/21 10:40:28;;;;;;;6.85;5.00;;;3.40;99.90;;;;;;5069220;28;20059;-62
2024/01/21 10:42:58;;;;;;;9.63;5.28;;;3.40;99.90;;;;;;5070009;28;20040;-62
2024/01/21 10:45:26;;;;;;;9.77;5.18;;;3.50;99.90;;;;;;5070259;28;20155;-62
2024/01/21 10:47:53;;;;;;;7.10;5.07;;;3.50;99.90;;;;;;5051958;28;20090;-62
2024/01/21 10:50:20;;;;;;;6.50;4.75;;;3.50;99.90;;;;;;5069314;28;20064;-62
2024/01/21 10:52:47;;;;;;;7.53;5.05;;;3.50;99.90;;;;;;5070210;28;20039;-62
2024/01/21 10:55:13;;;;;;;8.02;5.03;;;3.50;99.90;;;;;;5070207;28;20392;-62
2024/01/21 10:57:39;;;;;;;8.05;5.50;;;3.50;99.90;;;;;;5068681;28;20049;-62
2024/01/21 11:00:06;;;;;;;8.32;5.50;;;3.50;99.90;;;;;;5068553;28;20105;-62
2024/01/21 11:02:32;;;;;;;10.30;5.65;;;3.50;99.90;;;;;;5068713;28;20142;-62
2024/01/21 11:04:58;;;;;;;6.20;5.05;;;3.60;99.90;;;;;;5068647;28;20049;-62
2024/01/21 11:07:27;;;;;;;8.50;5.32;;;3.60;99.90;;;;;;5070257;28;20033;-62
2024/01/21 11:09:57;;;;;;;7.38;5.47;;;3.60;99.90;;;;;;5072820;28;20123;-62
2024/01/21 11:12:23;;;;;;;7.90;5.57;;;3.60;99.90;;;;;;5072447;28;20048;-62
2024/01/21 11:14:49;;;;;;;8.52;5.40;;;3.60;99.90;;;;;;5072087;28;20090;-61
2024/01/21 11:17:18;;;;;;;7.60;4.97;;;3.60;99.90;;;;;;5055280;28;20054;-61
2024/01/21 11:19:53;;;;;;;8.25;5.13;;;3.60;99.90;;;;;;5072439;28;20149;-62
2024/01/21 11:22:22;;;;;;;6.93;4.95;;;3.70;99.90;;;;;;5072335;28;20094;-62
2024/01/21 11:24:48;;;;;;;8.27;5.10;;;3.70;99.90;;;;;;5073292;28;20127;-61
2024/01/21 11:27:24;;;;;;;8.32;5.55;;;3.70;99.90;;;;;;5070451;28;20106;-62
2024/01/21 11:29:57;;;;;;;7.60;5.45;;;3.70;99.90;;;;;;5071997;28;20041;-61
2024/01/21 11:32:30;;;;;;;7.07;5.55;;;3.70;99.90;;;;;;5072143;28;20079;-62
2024/01/21 11:35:05;;;;;;;7.18;5.43;;;3.70;99.90;;;;;;5071821;28;20127;-62
2024/01/21 11:37:31;;;;;;;7.82;4.97;;;3.70;99.90;;;;;;5072065;28;20048;-61
2024/01/21 11:40:01;;;;;;;7.05;5.40;;;3.70;99.90;;;;;;5072845;28;20074;-62
2024/01/21 11:42:26;;;;;;;7.82;5.28;;;3.70;99.90;;;;;;5071689;28;20395;-62
2024/01/21 11:45:04;;;;;;;9.07;5.80;;;3.70;99.90;;;;;;5073082;28;20040;-62
2024/01/21 11:47:31;;;;;;;8.57;5.72;;;3.70;99.90;;;;;;5073045;28;20036;-62
2024/01/21 11:49:59;;;;;;;9.80;5.72;;;3.70;99.90;;;;;;5062029;28;20109;-62
2024/01/21 11:52:24;;;;;;;10.50;6.32;;;3.70;99.90;;;;;;5092039;28;20512;-63
2024/01/21 11:54:51;;;;;;;7.72;5.90;;;3.70;99.90;;;;;;5093162;28;20103;-62
2024/01/21 11:57:16;;;;;;;8.45;6.00;;;3.70;99.90;;;;;;5091750;28;20048;-62
2024/01/21 11:59:42;;;;;;;9.05;5.80;;;3.70;99.90;;;;;;5091756;28;20039;-62
2024/01/21 12:02:08;;;;;;;11.23;5.97;;;3.70;99.90;;;;;;5091718;28;20028;-62
2024/01/21 12:04:36;;;;;;;8.07;5.35;;;3.70;99.90;;;;;;5093060;28;20093;-62
2024/01/21 12:07:02;;;;;;;8.35;6.38;;;3.80;99.90;;;;;;5091246;28;20059;-62
2024/01/21 12:09:28;;;;;;;9.55;5.88;;;3.80;99.90;;;;;;5092882;28;20114;-62
2024/01/21 12:11:54;;;;;;;10.00;6.63;;;3.80;99.90;;;;;;5093036;28;20077;-62
2024/01/21 12:14:21;;;;;;;9.05;5.82;;;3.80;99.90;;;;;;5091072;28;20846;-62
2024/01/21 12:16:54;;;;;;;7.72;5.85;;;3.80;99.90;;;;;;5091665;28;20372;-61
2024/01/21 12:19:19;;;;;;;8.35;5.82;;;3.90;99.90;;;;;;5090801;28;20036;-62
2024/01/21 12:21:45;;;;;;;7.65;5.75;;;3.90;99.90;;;;;;5091652;28;20047;-62
2024/01/21 12:24:11;;;;;;;9.23;6.03;;;3.90;99.90;;;;;;5092644;28;20036;-62
2024/01/21 12:26:37;;;;;;;9.30;6.43;;;3.90;99.90;;;;;;5092100;28;20052;-62
2024/01/21 12:29:11;;;;;;;11.65;6.15;;;3.90;99.90;;;;;;5092574;28;20036;-61
2024/01/21 12:31:38;;;;;;;9.93;6.22;;;3.90;99.90;;;;;;5092314;28;20040;-63
2024/01/21 12:34:11;;;;;;;9.30;6.38;;;4.00;99.90;;;;;;5090951;28;20040;-61
2024/01/21 12:36:41;;;;;;;9.05;5.75;;;4.00;99.90;;;;;;5090878;28;20445;-62
2024/01/21 12:39:09;;;;;;;9.18;6.57;;;4.00;99.90;;;;;;5092133;28;20477;-62
2024/01/21 12:41:35;;;;;;;9.90;6.53;;;4.00;99.90;;;;;;5090903;28;20115;-62
2024/01/21 12:44:00;;;;;;;7.57;5.78;;;4.10;99.90;;;;;;5092171;28;20143;-63
2024/01/21 12:46:27;;;;;;;11.15;6.43;;;4.10;99.90;;;;;;5090576;28;20525;-61
2024/01/21 12:48:53;;;;;;;9.98;6.10;;;4.20;99.90;;;;;;5091947;28;20038;-62
2024/01/21 12:51:19;;;;;;;10.05;6.65;;;4.20;99.90;;;;;;5090469;28;20047;-62